createdAt,value
2022-12-02T00:04:28.478Z,1.56
2022-12-02T00:09:32.108Z,1.57
2022-12-02T00:14:35.065Z,1.64
2022-12-02T00:19:36.179Z,1.72
2022-12-02T00:24:37.426Z,1.83
2022-12-02T00:29:38.799Z,1.92
2022-12-02T00:34:40.055Z,1.99
2022-12-02T00:39:41.149Z,2.04
2022-12-02T00:45:01.213Z,2.03
2022-12-02T00:50:02.324Z,2.08
2022-12-02T00:55:04.460Z,2.08
2022-12-02T01:00:07.251Z,2.01
2022-12-02T01:05:09.071Z,1.92
2022-12-02T01:10:11.931Z,1.72
2022-12-02T01:15:13.093Z,1.62
2022-12-02T01:20:14.595Z,1.66
2022-12-02T01:25:15.744Z,1.74
2022-12-02T01:30:16.982Z,1.83
2022-12-02T01:35:19.066Z,1.90
2022-12-02T01:40:20.736Z,1.91
2022-12-02T01:45:22.650Z,1.90
2022-12-02T01:50:23.887Z,1.93
2022-12-02T01:55:27.470Z,1.88
2022-12-02T02:00:29.429Z,1.91
2022-12-02T02:05:32.746Z,1.95
2022-12-02T02:10:36.811Z,1.99
2022-12-02T02:15:40.365Z,2.07
2022-12-02T02:20:42.348Z,2.04
2022-12-02T02:25:46.719Z,2.06
2022-12-02T02:30:51.119Z,2.13
2022-12-02T02:35:52.858Z,2.15
2022-12-02T02:40:55.140Z,2.14
2022-12-02T02:45:59.420Z,2.13
2022-12-02T02:51:07.352Z,2.06
2022-12-02T02:56:10.407Z,1.88
2022-12-02T03:01:24.650Z,1.78
2022-12-02T03:06:28.182Z,1.68
2022-12-02T03:11:31.393Z,1.60
2022-12-02T03:16:33.107Z,1.52
2022-12-02T03:21:35.045Z,1.49
2022-12-02T03:26:36.931Z,1.52
2022-12-02T03:31:38.643Z,1.53
2022-12-02T03:36:40.630Z,1.55
2022-12-02T03:41:41.740Z,1.66
2022-12-02T03:46:43.817Z,1.75
2022-12-02T03:51:46.106Z,1.80
2022-12-02T03:56:47.180Z,1.85
2022-12-02T04:01:48.560Z,1.69
2022-12-02T04:06:49.893Z,1.64
2022-12-02T04:11:51.001Z,1.70
2022-12-02T04:16:52.218Z,1.65
2022-12-02T04:21:53.376Z,1.74
2022-12-02T04:26:55.049Z,1.77
2022-12-02T04:31:56.310Z,1.75
2022-12-02T04:36:57.400Z,1.64
2022-12-02T04:41:58.729Z,1.42
2022-12-02T04:46:59.951Z,1.19
2022-12-02T04:52:01.364Z,0.99
2022-12-02T04:57:02.627Z,0.97
2022-12-02T05:02:03.888Z,0.93
2022-12-02T05:07:05.047Z,0.87
2022-12-02T05:12:06.308Z,0.93
2022-12-02T05:17:07.774Z,1.01
2022-12-02T05:22:09.453Z,1.14
2022-12-02T05:27:10.557Z,1.26
2022-12-02T05:32:11.647Z,1.37
2022-12-02T05:37:12.771Z,1.47
2022-12-02T05:42:14.707Z,1.51
2022-12-02T05:47:18.157Z,1.59
2022-12-02T05:52:25.392Z,1.70
2022-12-02T05:57:29.757Z,1.73
2022-12-02T06:02:40.577Z,1.78
2022-12-02T06:07:42.611Z,1.83
2022-12-02T06:12:43.995Z,1.68
2022-12-02T06:17:45.681Z,1.65
2022-12-02T06:22:47.029Z,1.65
2022-12-02T06:27:48.290Z,1.61
2022-12-02T06:32:54.778Z,1.51
2022-12-02T06:37:58.501Z,1.34
2022-12-02T06:43:12.359Z,1.27
2022-12-02T06:48:33.995Z,1.06
2022-12-02T06:53:39.952Z,0.88
2022-12-02T06:58:47.328Z,0.90
2022-12-02T07:04:10.315Z,0.96
2022-12-02T07:09:32.940Z,1.02
2022-12-02T07:14:43.330Z,1.07
2022-12-02T07:19:46.911Z,1.15
2022-12-02T07:24:55.723Z,1.18
2022-12-02T07:29:58.177Z,1.19
2022-12-02T07:34:59.261Z,1.23
2022-12-02T07:40:00.375Z,1.23
2022-12-02T07:45:01.513Z,1.15
2022-12-02T07:50:03.304Z,1.18
2022-12-02T07:55:05.476Z,1.23
2022-12-02T08:00:08.343Z,1.23
2022-12-02T08:05:15.542Z,1.30
2022-12-02T08:10:17.659Z,1.33
2022-12-02T08:15:18.818Z,1.39
2022-12-02T08:20:20.802Z,1.39
2022-12-02T08:25:21.901Z,1.29
2022-12-02T08:30:23.019Z,1.25
2022-12-02T08:35:24.163Z,1.35
2022-12-02T08:40:25.649Z,1.41
2022-12-02T08:45:27.626Z,1.47
2022-12-02T08:50:29.197Z,1.57
2022-12-02T08:55:30.567Z,1.63
2022-12-02T09:00:37.189Z,1.68
2022-12-02T09:05:41.177Z,1.74
2022-12-02T09:10:42.549Z,1.77
2022-12-02T09:15:43.886Z,1.76
2022-12-02T09:20:45.071Z,1.65
2022-12-02T09:25:46.227Z,1.55
2022-12-02T09:30:48.081Z,1.53
2022-12-02T09:35:50.803Z,1.50
2022-12-02T09:40:52.270Z,1.40
2022-12-02T09:45:54.150Z,1.36
2022-12-02T09:50:57.558Z,1.36
2022-12-02T09:55:58.728Z,1.38
2022-12-02T10:00:59.842Z,1.37
2022-12-02T10:06:05.854Z,1.40
2022-12-02T10:11:07.099Z,1.44
2022-12-02T10:16:13.065Z,1.44
2022-12-02T10:21:14.610Z,1.34
2022-12-02T10:26:15.684Z,1.35
2022-12-02T10:31:23.886Z,1.39
2022-12-02T10:36:42.119Z,1.43
2022-12-02T10:41:43.578Z,1.43
2022-12-02T10:46:45.893Z,1.53
2022-12-02T10:51:47.590Z,1.64
2022-12-02T10:56:48.800Z,1.63
2022-12-02T11:01:50.094Z,1.70
2022-12-02T11:06:54.392Z,1.77
2022-12-02T11:12:32.339Z,1.78
2022-12-02T11:17:51.046Z,1.73
2022-12-02T11:22:58.106Z,1.58
2022-12-02T11:28:17.537Z,1.55
2022-12-02T11:34:05.743Z,1.47
2022-12-02T11:39:09.211Z,1.40
2022-12-02T11:44:25.675Z,1.52
2022-12-02T11:49:34.711Z,1.63
2022-12-02T11:54:38.587Z,1.74
2022-12-02T11:59:41.134Z,1.82
2022-12-02T12:04:43.159Z,1.92
2022-12-02T12:09:57.225Z,1.93
2022-12-02T12:15:04.913Z,1.92
2022-12-02T12:20:15.602Z,1.87
2022-12-02T12:25:43.300Z,1.79
2022-12-02T12:30:44.613Z,1.72
2022-12-02T12:35:45.759Z,1.75
2022-12-02T12:40:46.974Z,1.85
2022-12-02T12:45:48.202Z,2.00
2022-12-02T12:50:49.302Z,2.03
2022-12-02T12:55:50.483Z,1.91
2022-12-02T13:00:51.604Z,1.71
2022-12-02T13:05:52.703Z,1.65
2022-12-02T13:10:53.890Z,1.68
2022-12-02T13:15:55.732Z,1.70
2022-12-02T13:20:56.922Z,1.77
2022-12-02T13:25:58.289Z,1.80
2022-12-02T13:30:59.557Z,1.79
2022-12-02T13:36:00.696Z,1.68
2022-12-02T13:41:01.859Z,1.51
2022-12-02T13:46:03.137Z,1.42
2022-12-02T13:51:04.509Z,1.27
2022-12-02T13:56:06.397Z,1.17
2022-12-02T14:01:07.630Z,1.15
2022-12-02T14:06:08.929Z,1.20
2022-12-02T14:11:10.111Z,1.26
2022-12-02T14:16:11.275Z,1.27
2022-12-02T14:21:12.665Z,1.33
2022-12-02T14:26:13.805Z,1.44
2022-12-02T14:31:23.976Z,1.55
2022-12-02T14:36:27.361Z,1.53
2022-12-02T14:41:28.445Z,1.42
2022-12-02T14:46:32.313Z,1.33
2022-12-02T14:51:33.605Z,1.26
2022-12-02T14:56:34.761Z,1.08
2022-12-02T15:01:35.941Z,0.93
2022-12-02T15:06:37.191Z,0.94
2022-12-02T15:11:38.478Z,1.00
2022-12-02T15:16:39.831Z,1.02
2022-12-02T15:21:41.389Z,0.99
2022-12-02T15:26:42.997Z,0.98
2022-12-02T15:31:44.275Z,1.00
2022-12-02T15:36:45.585Z,1.01
2022-12-02T15:41:46.952Z,1.06
2022-12-02T15:46:48.367Z,1.06
2022-12-02T15:51:49.469Z,0.94
2022-12-02T15:56:54.293Z,0.89
2022-12-02T16:01:55.866Z,0.80
2022-12-02T16:06:57.084Z,0.72
2022-12-02T16:11:58.146Z,0.67
2022-12-02T16:16:59.277Z,0.65
2022-12-02T16:22:00.431Z,0.58
2022-12-02T16:27:02.412Z,0.55
2022-12-02T16:32:03.820Z,0.64
2022-12-02T16:37:04.938Z,0.83
2022-12-02T16:42:06.107Z,0.89
2022-12-02T16:47:07.258Z,0.96
2022-12-02T16:52:08.360Z,1.03
2022-12-02T16:57:09.577Z,0.98
2022-12-02T17:02:10.925Z,0.88
2022-12-02T17:07:12.282Z,0.94
2022-12-02T17:12:13.472Z,0.96
2022-12-02T17:17:43.453Z,0.91
2022-12-02T17:22:35.654Z,0.91
2022-12-02T17:27:36.801Z,0.89
2022-12-02T17:32:38.283Z,0.86
2022-12-02T17:37:39.446Z,0.79
2022-12-02T17:42:40.651Z,0.68
2022-12-02T17:47:42.177Z,0.63
2022-12-02T17:52:43.438Z,0.64
2022-12-02T17:57:44.528Z,0.69
2022-12-02T18:02:45.824Z,0.74
2022-12-02T18:07:47.079Z,0.77
2022-12-02T18:12:48.386Z,0.84
2022-12-02T18:17:49.647Z,1.01
2022-12-02T18:22:50.733Z,1.03
2022-12-02T18:27:51.869Z,0.92
2022-12-02T18:32:53.656Z,0.86
2022-12-02T18:37:54.802Z,0.83
2022-12-02T18:42:55.964Z,0.89
2022-12-02T18:47:57.226Z,0.91
2022-12-02T18:52:58.310Z,1.03
2022-12-02T18:57:59.553Z,1.10
2022-12-02T19:03:01.268Z,1.08
2022-12-02T19:08:02.757Z,0.97
2022-12-02T19:13:04.056Z,0.97
2022-12-02T19:18:05.215Z,1.02
2022-12-02T19:23:06.476Z,0.99
2022-12-02T19:28:07.637Z,1.03
2022-12-02T19:33:08.769Z,1.06
2022-12-02T19:38:14.855Z,1.07
2022-12-02T19:43:16.630Z,1.18
2022-12-02T19:48:17.850Z,1.29
2022-12-02T19:53:18.979Z,1.31
2022-12-02T19:58:20.133Z,1.33
2022-12-02T20:03:21.732Z,1.38
2022-12-02T20:08:23.116Z,1.41
2022-12-02T20:13:24.413Z,1.41
2022-12-02T20:18:25.895Z,1.40
2022-12-02T20:23:28.189Z,1.33
2022-12-02T20:28:29.445Z,1.27
2022-12-02T20:33:30.569Z,1.24
2022-12-02T20:38:31.868Z,1.22
2022-12-02T20:43:33.049Z,1.15
2022-12-02T20:48:34.101Z,1.13
2022-12-02T20:53:35.351Z,1.17
2022-12-02T20:58:36.510Z,1.37
2022-12-02T21:03:37.628Z,1.52
2022-12-02T21:08:38.895Z,1.59
2022-12-02T21:13:40.507Z,1.54
2022-12-02T21:18:41.566Z,1.40
2022-12-02T21:23:42.827Z,1.41
2022-12-02T21:28:44.081Z,1.43
2022-12-02T21:33:45.478Z,1.44
2022-12-02T21:38:46.645Z,1.44
2022-12-02T21:43:47.755Z,1.37
2022-12-02T21:48:48.907Z,1.48
2022-12-02T21:53:50.035Z,1.57
2022-12-02T21:58:51.143Z,1.60
2022-12-02T22:03:52.209Z,1.61
2022-12-02T22:08:53.372Z,1.52
2022-12-02T22:14:01.598Z,1.59
2022-12-02T22:19:02.757Z,1.69
2022-12-02T22:24:04.537Z,1.75
2022-12-02T22:29:05.994Z,1.81
2022-12-02T22:34:07.736Z,1.78
2022-12-02T22:39:08.857Z,1.73
2022-12-02T22:44:09.961Z,1.68
2022-12-02T22:49:15.932Z,1.69
2022-12-02T22:54:18.257Z,1.68
2022-12-02T22:59:19.620Z,1.61
2022-12-02T23:04:20.906Z,1.54
2022-12-02T23:09:22.144Z,1.54
2022-12-02T23:14:23.255Z,1.58
2022-12-02T23:19:24.363Z,1.66
2022-12-02T23:24:25.630Z,1.73
2022-12-02T23:29:27.410Z,1.74
2022-12-02T23:34:28.668Z,1.82
2022-12-02T23:39:29.802Z,1.81
2022-12-02T23:44:31.296Z,1.77
2022-12-02T23:49:32.458Z,1.67
2022-12-02T23:54:33.539Z,1.62
2022-12-02T23:59:34.614Z,1.63
